sensor_id;sensor_type;location;lat;lon;timestamp;pressure;altitude;pressure_sealevel;temperature;humidity
47374;BME280;33123;50.118;10.272;2023-02-13T00:01:41;99747.06;;;7.53;74.54
47374;BME280;33123;50.118;10.272;2023-02-13T00:04:08;99753.81;;;7.55;74.37
47374;BME280;33123;50.118;10.272;2023-02-13T00:06:34;99748.06;;;7.52;75.02
47374;BME280;33123;50.118;10.272;2023-02-13T00:09:01;99748.06;;;7.52;74.96
47374;BME280;33123;50.118;10.272;2023-02-13T00:11:28;99753.50;;;7.50;74.71
47374;BME280;33123;50.118;10.272;2023-02-13T00:13:57;99754.31;;;7.51;74.66
47374;BME280;33123;50.118;10.272;2023-02-13T00:16:23;99749.06;;;7.51;74.54
47374;BME280;33123;50.118;10.272;2023-02-13T00:18:50;99751.69;;;7.51;74.79
47374;BME280;33123;50.118;10.272;2023-02-13T00:21:17;99751.41;;;7.46;74.59
47374;BME280;33123;50.118;10.272;2023-02-13T00:23:43;99747.44;;;7.50;75.19
47374;BME280;33123;50.118;10.272;2023-02-13T00:26:12;99747.44;;;7.50;75.13
47374;BME280;33123;50.118;10.272;2023-02-13T00:28:38;99749.41;;;7.48;75.16
47374;BME280;33123;50.118;10.272;2023-02-13T00:31:08;99742.06;;;7.43;75.29
47374;BME280;33123;50.118;10.272;2023-02-13T00:33:36;99733.56;;;7.41;75.27
47374;BME280;33123;50.118;10.272;2023-02-13T00:36:05;99738.28;;;7.46;75.02
47374;BME280;33123;50.118;10.272;2023-02-13T00:38:32;99738.28;;;7.46;75.33
47374;BME280;33123;50.118;10.272;2023-02-13T00:40:59;99740.09;;;7.45;74.79
47374;BME280;33123;50.118;10.272;2023-02-13T00:43:25;99731.41;;;7.45;75.21
47374;BME280;33123;50.118;10.272;2023-02-13T00:45:52;99731.41;;;7.45;75.34
47374;BME280;33123;50.118;10.272;2023-02-13T00:48:20;99736.81;;;7.43;75.04
47374;BME280;33123;50.118;10.272;2023-02-13T00:50:47;99736.66;;;7.45;75.43
47374;BME280;33123;50.118;10.272;2023-02-13T00:53:13;99729.13;;;7.41;75.62
47374;BME280;33123;50.118;10.272;2023-02-13T00:55:40;99737.63;;;7.44;75.36
47374;BME280;33123;50.118;10.272;2023-02-13T00:58:06;99727.50;;;7.40;75.14
47374;BME280;33123;50.118;10.272;2023-02-13T01:00:33;99729.50;;;7.38;75.62
47374;BME280;33123;50.118;10.272;2023-02-13T01:03:00;99735.38;;;7.40;75.06
47374;BME280;33123;50.118;10.272;2023-02-13T01:05:28;99725.88;;;7.39;75.53
47374;BME280;33123;50.118;10.272;2023-02-13T01:07:55;99732.75;;;7.40;74.95
47374;BME280;33123;50.118;10.272;2023-02-13T01:10:21;99734.75;;;7.38;74.72
47374;BME280;33123;50.118;10.272;2023-02-13T01:12:48;99730.47;;;7.37;74.73
47374;BME280;33123;50.118;10.272;2023-02-13T01:15:15;99734.59;;;7.32;74.85
47374;BME280;33123;50.118;10.272;2023-02-13T01:17:41;99725.28;;;7.29;74.24
47374;BME280;33123;50.118;10.272;2023-02-13T01:20:09;99728.25;;;7.26;74.26
47374;BME280;33123;50.118;10.272;2023-02-13T01:22:38;99734.00;;;7.22;74.71
47374;BME280;33123;50.118;10.272;2023-02-13T01:25:06;99732.75;;;7.18;74.78
47374;BME280;33123;50.118;10.272;2023-02-13T01:27:32;99728.00;;;7.13;74.34
47374;BME280;33123;50.118;10.272;2023-02-13T01:29:59;99730.34;;;7.08;74.58
47374;BME280;33123;50.118;10.272;2023-02-13T01:32:26;99719.56;;;7.03;74.52
47374;BME280;33123;50.118;10.272;2023-02-13T01:34:52;99717.81;;;6.95;74.82
47374;BME280;33123;50.118;10.272;2023-02-13T01:37:19;99722.75;;;6.90;75.01
47374;BME280;33123;50.118;10.272;2023-02-13T01:39:47;99716.72;;;6.81;75.07
47374;BME280;33123;50.118;10.272;2023-02-13T01:42:16;99720.03;;;6.75;75.14
47374;BME280;33123;50.118;10.272;2023-02-13T01:44:50;99712.66;;;6.71;74.95
47374;BME280;33123;50.118;10.272;2023-02-13T01:47:24;99712.91;;;6.61;75.20
47374;BME280;33123;50.118;10.272;2023-02-13T01:50:00;99714.56;;;6.54;75.38
47374;BME280;33123;50.118;10.272;2023-02-13T01:52:28;99716.84;;;6.49;75.98
47374;BME280;33123;50.118;10.272;2023-02-13T01:54:56;99711.50;;;6.42;76.66
47374;BME280;33123;50.118;10.272;2023-02-13T01:57:25;99698.56;;;6.41;76.65
47374;BME280;33123;50.118;10.272;2023-02-13T01:59:56;99704.63;;;6.41;76.71
47374;BME280;33123;50.118;10.272;2023-02-13T02:02:24;99700.84;;;6.44;77.09
47374;BME280;33123;50.118;10.272;2023-02-13T02:04:51;99696.59;;;6.43;76.29
47374;BME280;33123;50.118;10.272;2023-02-13T02:07:20;99703.00;;;6.40;76.66
47374;BME280;33123;50.118;10.272;2023-02-13T02:09:51;99696.28;;;6.38;77.20
47374;BME280;33123;50.118;10.272;2023-02-13T02:12:23;99697.25;;;6.37;76.97
47374;BME280;33123;50.118;10.272;2023-02-13T02:14:52;99703.16;;;6.39;77.45
47374;BME280;33123;50.118;10.272;2023-02-13T02:17:20;99704.50;;;6.34;77.02
47374;BME280;33123;50.118;10.272;2023-02-13T02:19:54;99703.81;;;6.41;77.43
47374;BME280;33123;50.118;10.272;2023-02-13T02:22:50;99706.75;;;6.38;76.95
47374;BME280;33123;50.118;10.272;2023-02-13T02:25:42;99706.75;;;6.38;76.93
47374;BME280;33123;50.118;10.272;2023-02-13T02:28:30;99708.56;;;6.37;76.70
47374;BME280;33123;50.118;10.272;2023-02-13T02:31:21;99707.09;;;6.34;77.15
47374;BME280;33123;50.118;10.272;2023-02-13T02:34:03;99713.97;;;6.35;77.15
47374;BME280;33123;50.118;10.272;2023-02-13T02:36:42;99708.72;;;6.35;77.40
47374;BME280;33123;50.118;10.272;2023-02-13T02:39:19;99702.69;;;6.35;77.25
47374;BME280;33123;50.118;10.272;2023-02-13T02:41:56;99695.63;;;6.35;76.89
47374;BME280;33123;50.118;10.272;2023-02-13T02:44:31;99702.03;;;6.33;76.81
47374;BME280;33123;50.118;10.272;2023-02-13T02:47:02;99710.72;;;6.33;77.37
47374;BME280;33123;50.118;10.272;2023-02-13T02:50:01;99714.97;;;6.34;77.44
47374;BME280;33123;50.118;10.272;2023-02-13T02:52:40;99712.34;;;6.34;77.41
47374;BME280;33123;50.118;10.272;2023-02-13T02:55:16;99714.97;;;6.34;77.23
47374;BME280;33123;50.118;10.272;2023-02-13T02:57:49;99719.22;;;6.35;77.28
47374;BME280;33123;50.118;10.272;2023-02-13T03:00:37;99720.03;;;6.36;76.70
47374;BME280;33123;50.118;10.272;2023-02-13T03:03:24;99716.59;;;6.35;76.72
47374;BME280;33123;50.118;10.272;2023-02-13T03:06:14;99723.44;;;6.37;76.91
47374;BME280;33123;50.118;10.272;2023-02-13T03:08:44;99714.16;;;6.34;76.48
47374;BME280;33123;50.118;10.272;2023-02-13T03:11:30;99706.28;;;6.34;76.18
47374;BME280;33123;50.118;10.272;2023-02-13T03:14:29;99715.28;;;6.31;76.20
47374;BME280;33123;50.118;10.272;2023-02-13T03:16:57;99708.25;;;6.32;75.98
47374;BME280;33123;50.118;10.272;2023-02-13T03:19:49;99716.28;;;6.30;76.11
47374;BME280;33123;50.118;10.272;2023-02-13T03:22:41;99721.34;;;6.32;76.25
47374;BME280;33123;50.118;10.272;2023-02-13T03:25:15;99711.22;;;6.29;75.58
47374;BME280;33123;50.118;10.272;2023-02-13T03:27:47;99719.25;;;6.27;75.66
47374;BME280;33123;50.118;10.272;2023-02-13T03:30:40;99712.72;;;6.23;75.56
47374;BME280;33123;50.118;10.272;2023-02-13T03:33:22;99713.38;;;6.17;75.46
47374;BME280;33123;50.118;10.272;2023-02-13T03:35:57;99711.59;;;6.09;75.33
47374;BME280;33123;50.118;10.272;2023-02-13T03:38:50;99671.41;;;5.78;75.59
47374;BME280;33123;50.118;10.272;2023-02-13T03:41:23;99713.59;;;5.91;75.47
47374;BME280;33123;50.118;10.272;2023-02-13T03:44:01;99703.25;;;5.81;75.49
47374;BME280;33123;50.118;10.272;2023-02-13T03:46:33;99711.47;;;5.78;75.57
47374;BME280;33123;50.118;10.272;2023-02-13T03:49:03;99712.13;;;5.72;76.14
47374;BME280;33123;50.118;10.272;2023-02-13T03:51:49;99711.78;;;5.67;76.23
47374;BME280;33123;50.118;10.272;2023-02-13T03:54:22;99712.94;;;5.65;76.29
47374;BME280;33123;50.118;10.272;2023-02-13T03:57:10;99712.78;;;5.58;75.98
47374;BME280;33123;50.118;10.272;2023-02-13T03:59:56;99707.84;;;5.55;76.02
47374;BME280;33123;50.118;10.272;2023-02-13T04:02:28;99713.94;;;5.55;76.04
47374;BME280;33123;50.118;10.272;2023-02-13T04:04:59;99709.00;;;5.52;75.88
47374;BME280;33123;50.118;10.272;2023-02-13T04:07:30;99710.00;;;5.51;76.31
47374;BME280;33123;50.118;10.272;2023-02-13T04:10:01;99707.56;;;5.50;75.87
47374;BME280;33123;50.118;10.272;2023-02-13T04:12:36;99709.31;;;5.49;76.15
47374;BME280;33123;50.118;10.272;2023-02-13T04:15:08;99712.13;;;5.48;75.71
47374;BME280;33123;50.118;10.272;2023-02-13T04:17:40;99707.88;;;5.47;76.32
47374;BME280;33123;50.118;10.272;2023-02-13T04:20:09;99711.47;;;5.46;76.14
47374;BME280;33123;50.118;10.272;2023-02-13T04:22:41;99712.28;;;5.46;75.81
47374;BME280;33123;50.118;10.272;2023-02-13T04:25:11;99709.66;;;5.46;76.21
47374;BME280;33123;50.118;10.272;2023-02-13T04:27:38;99717.69;;;5.45;75.33
47374;BME280;33123;50.118;10.272;2023-02-13T04:30:06;99713.59;;;5.42;74.87
47374;BME280;33123;50.118;10.272;2023-02-13T04:32:33;99714.75;;;5.40;74.72
47374;BME280;33123;50.118;10.272;2023-02-13T04:35:00;99714.41;;;5.35;74.57
47374;BME280;33123;50.118;10.272;2023-02-13T04:37:26;99718.31;;;5.30;74.80
47374;BME280;33123;50.118;10.272;2023-02-13T04:39:53;99713.56;;;5.26;74.97
47374;BME280;33123;50.118;10.272;2023-02-13T04:42:21;99713.41;;;5.19;75.00
47374;BME280;33123;50.118;10.272;2023-02-13T04:44:47;99703.25;;;5.08;75.32
47374;BME280;33123;50.118;10.272;2023-02-13T04:47:14;99706.53;;;5.02;75.07
47374;BME280;33123;50.118;10.272;2023-02-13T04:49:41;99711.06;;;4.92;75.62
47374;BME280;33123;50.118;10.272;2023-02-13T04:52:07;99700.78;;;4.90;75.70
47374;BME280;33123;50.118;10.272;2023-02-13T04:54:34;99701.25;;;4.86;76.26
47374;BME280;33123;50.118;10.272;2023-02-13T04:57:00;99712.69;;;4.85;75.50
47374;BME280;33123;50.118;10.272;2023-02-13T04:59:28;99708.44;;;4.84;75.22
47374;BME280;33123;50.118;10.272;2023-02-13T05:01:55;99711.69;;;4.78;75.06
47374;BME280;33123;50.118;10.272;2023-02-13T05:04:23;99710.38;;;4.73;75.14
47374;BME280;33123;50.118;10.272;2023-02-13T05:06:50;99707.41;;;4.68;75.35
47374;BME280;33123;50.118;10.272;2023-02-13T05:09:17;99703.19;;;4.67;75.20
47374;BME280;33123;50.118;10.272;2023-02-13T05:11:43;99709.97;;;4.60;74.96
47374;BME280;33123;50.118;10.272;2023-02-13T05:14:10;99705.25;;;4.56;74.45
47374;BME280;33123;50.118;10.272;2023-02-13T05:16:38;99705.03;;;4.49;74.58
47374;BME280;33123;50.118;10.272;2023-02-13T05:19:04;99707.31;;;4.44;74.82
47374;BME280;33123;50.118;10.272;2023-02-13T05:21:31;99708.91;;;4.37;74.95
47374;BME280;33123;50.118;10.272;2023-02-13T05:24:15;99713.75;;;4.23;75.15
47374;BME280;33123;50.118;10.272;2023-02-13T05:26:41;99710.47;;;4.21;75.31
47374;BME280;33123;50.118;10.272;2023-02-13T05:29:09;99710.97;;;4.17;74.97
47374;BME280;33123;50.118;10.272;2023-02-13T05:31:49;99710.59;;;4.12;75.55
47374;BME280;33123;50.118;10.272;2023-02-13T05:34:16;99707.78;;;4.05;75.45
47374;BME280;33123;50.118;10.272;2023-02-13T05:36:44;99718.00;;;3.98;75.56
47374;BME280;33123;50.118;10.272;2023-02-13T05:39:10;99717.50;;;3.95;75.84
47374;BME280;33123;50.118;10.272;2023-02-13T05:41:37;99722.22;;;3.91;75.59
47374;BME280;33123;50.118;10.272;2023-02-13T05:44:04;99726.91;;;3.88;75.75
47374;BME280;33123;50.118;10.272;2023-02-13T05:46:31;99719.03;;;3.80;75.72
47374;BME280;33123;50.118;10.272;2023-02-13T05:48:58;99723.44;;;3.79;76.16
47374;BME280;33123;50.118;10.272;2023-02-13T05:51:25;99716.72;;;3.77;75.77
47374;BME280;33123;50.118;10.272;2023-02-13T05:53:52;99728.94;;;3.76;75.54
47374;BME280;33123;50.118;10.272;2023-02-13T05:56:18;99696.97;;;3.48;75.96
47374;BME280;33123;50.118;10.272;2023-02-13T05:58:45;99721.53;;;3.63;75.90
47374;BME280;33123;50.118;10.272;2023-02-13T06:01:12;99734.19;;;3.58;76.33
47374;BME280;33123;50.118;10.272;2023-02-13T06:03:38;99726.22;;;3.60;76.33
47374;BME280;33123;50.118;10.272;2023-02-13T06:06:07;99731.75;;;3.57;76.25
47374;BME280;33123;50.118;10.272;2023-02-13T06:08:33;99725.94;;;3.45;76.56
47374;BME280;33123;50.118;10.272;2023-02-13T06:11:00;99734.44;;;3.47;77.60
47374;BME280;33123;50.118;10.272;2023-02-13T06:13:27;99740.00;;;3.52;76.71
47374;BME280;33123;50.118;10.272;2023-02-13T06:15:53;99736.22;;;3.47;76.59
47374;BME280;33123;50.118;10.272;2023-02-13T06:18:20;99740.81;;;3.53;76.07
47374;BME280;33123;50.118;10.272;2023-02-13T06:20:47;99739.63;;;3.47;76.54
47374;BME280;33123;50.118;10.272;2023-02-13T06:23:15;99744.56;;;3.50;76.14
47374;BME280;33123;50.118;10.272;2023-02-13T06:25:42;99747.81;;;3.52;75.98
47374;BME280;33123;50.118;10.272;2023-02-13T06:28:08;99747.81;;;3.52;75.32
47374;BME280;33123;50.118;10.272;2023-02-13T06:30:35;99747.81;;;3.52;75.31
47374;BME280;33123;50.118;10.272;2023-02-13T06:33:02;99747.16;;;3.50;75.20
47374;BME280;33123;50.118;10.272;2023-02-13T06:35:28;99744.84;;;3.47;74.63
47374;BME280;33123;50.118;10.272;2023-02-13T06:37:55;99746.81;;;3.45;74.62
47374;BME280;33123;50.118;10.272;2023-02-13T06:40:23;99743.13;;;3.38;74.33
47374;BME280;33123;50.118;10.272;2023-02-13T06:42:49;99751.94;;;3.37;74.41
47374;BME280;33123;50.118;10.272;2023-02-13T06:45:16;99757.28;;;3.35;74.69
47374;BME280;33123;50.118;10.272;2023-02-13T06:47:44;99761.00;;;3.33;74.56
47374;BME280;33123;50.118;10.272;2023-02-13T06:50:13;99757.72;;;3.31;74.88
47374;BME280;33123;50.118;10.272;2023-02-13T06:52:45;99757.72;;;3.31;75.26
47374;BME280;33123;50.118;10.272;2023-02-13T06:55:11;99755.13;;;3.31;75.55
47374;BME280;33123;50.118;10.272;2023-02-13T06:57:39;99769.66;;;3.33;76.07
47374;BME280;33123;50.118;10.272;2023-02-13T07:00:07;99763.97;;;3.38;76.21
47374;BME280;33123;50.118;10.272;2023-02-13T07:02:37;99761.09;;;3.41;76.81
47374;BME280;33123;50.118;10.272;2023-02-13T07:05:04;99773.09;;;3.52;77.22
47374;BME280;33123;50.118;10.272;2023-02-13T07:07:32;99771.34;;;3.60;77.20
47374;BME280;33123;50.118;10.272;2023-02-13T07:09:59;99765.56;;;3.66;77.28
47374;BME280;33123;50.118;10.272;2023-02-13T07:12:25;99773.44;;;3.75;77.31
47374;BME280;33123;50.118;10.272;2023-02-13T07:14:53;99769.63;;;3.87;77.01
47374;BME280;33123;50.118;10.272;2023-02-13T07:17:20;99772.13;;;3.96;76.95
47374;BME280;33123;50.118;10.272;2023-02-13T07:19:46;99772.69;;;4.08;77.01
47374;BME280;33123;50.118;10.272;2023-02-13T07:22:13;99769.06;;;4.27;77.25
47374;BME280;33123;50.118;10.272;2023-02-13T07:24:40;99773.34;;;4.62;77.27
47374;BME280;33123;50.118;10.272;2023-02-13T07:27:06;99771.22;;;5.08;77.24
47374;BME280;33123;50.118;10.272;2023-02-13T07:29:33;99770.47;;;5.65;76.79
47374;BME280;33123;50.118;10.272;2023-02-13T07:32:01;99771.75;;;6.26;73.55
47374;BME280;33123;50.118;10.272;2023-02-13T07:34:27;99768.13;;;6.91;71.71
47374;BME280;33123;50.118;10.272;2023-02-13T07:36:54;99767.72;;;7.56;69.06
47374;BME280;33123;50.118;10.272;2023-02-13T07:39:21;99775.59;;;8.16;65.62
47374;BME280;33123;50.118;10.272;2023-02-13T07:41:47;99763.56;;;8.81;63.93
47374;BME280;33123;50.118;10.272;2023-02-13T07:44:14;99762.53;;;9.33;61.01
47374;BME280;33123;50.118;10.272;2023-02-13T07:46:40;99765.03;;;9.84;58.31
47374;BME280;33123;50.118;10.272;2023-02-13T07:49:09;99762.78;;;10.37;58.93
47374;BME280;33123;50.118;10.272;2023-02-13T07:51:35;99771.56;;;10.86;56.83
47374;BME280;33123;50.118;10.272;2023-02-13T07:54:02;99773.97;;;11.35;55.53
47374;BME280;33123;50.118;10.272;2023-02-13T07:56:28;99764.06;;;11.77;54.18
47374;BME280;33123;50.118;10.272;2023-02-13T07:58:55;99776.50;;;12.23;52.31
47374;BME280;33123;50.118;10.272;2023-02-13T08:01:22;99778.22;;;12.68;51.44
47374;BME280;33123;50.118;10.272;2023-02-13T08:03:49;99767.25;;;13.10;49.35
47374;BME280;33123;50.118;10.272;2023-02-13T08:06:19;99753.31;;;13.34;48.41
47374;BME280;33123;50.118;10.272;2023-02-13T08:08:45;99775.97;;;13.87;46.88
47374;BME280;33123;50.118;10.272;2023-02-13T08:11:22;99780.63;;;14.16;46.64
47374;BME280;33123;50.118;10.272;2023-02-13T08:14:09;99778.00;;;14.35;45.90
47374;BME280;33123;50.118;10.272;2023-02-13T08:16:36;99778.31;;;14.45;46.17
47374;BME280;33123;50.118;10.272;2023-02-13T08:19:02;99765.16;;;14.32;44.73
47374;BME280;33123;50.118;10.272;2023-02-13T08:21:30;99773.41;;;14.23;44.41
47374;BME280;33123;50.118;10.272;2023-02-13T08:23:59;99775.31;;;13.91;44.42
47374;BME280;33123;50.118;10.272;2023-02-13T08:26:26;99782.13;;;13.49;45.59
47374;BME280;33123;50.118;10.272;2023-02-13T08:28:53;99776.88;;;12.98;46.36
47374;BME280;33123;50.118;10.272;2023-02-13T08:31:20;99785.81;;;12.45;48.48
47374;BME280;33123;50.118;10.272;2023-02-13T08:33:47;99782.38;;;11.98;48.94
47374;BME280;33123;50.118;10.272;2023-02-13T08:36:13;99788.25;;;11.60;50.48
47374;BME280;33123;50.118;10.272;2023-02-13T08:38:41;99788.13;;;11.21;51.28
47374;BME280;33123;50.118;10.272;2023-02-13T08:41:08;99789.25;;;10.92;52.65
47374;BME280;33123;50.118;10.272;2023-02-13T08:43:35;99790.94;;;10.65;53.09
47374;BME280;33123;50.118;10.272;2023-02-13T08:46:01;99785.84;;;10.56;55.24
47374;BME280;33123;50.118;10.272;2023-02-13T08:48:28;99786.22;;;10.53;54.90
47374;BME280;33123;50.118;10.272;2023-02-13T08:50:55;99781.09;;;10.45;55.37
47374;BME280;33123;50.118;10.272;2023-02-13T08:53:22;99786.50;;;10.37;56.00
47374;BME280;33123;50.118;10.272;2023-02-13T08:55:53;99789.34;;;10.36;56.44
47374;BME280;33123;50.118;10.272;2023-02-13T08:58:19;99791.41;;;10.40;57.03
47374;BME280;33123;50.118;10.272;2023-02-13T09:00:46;99788.13;;;10.38;56.99
47374;BME280;33123;50.118;10.272;2023-02-13T09:03:13;99792.28;;;10.54;57.10
47374;BME280;33123;50.118;10.272;2023-02-13T09:05:41;99785.88;;;10.63;56.55
47374;BME280;33123;50.118;10.272;2023-02-13T09:08:07;99790.59;;;10.74;55.98
47374;BME280;33123;50.118;10.272;2023-02-13T09:10:36;99786.97;;;10.82;55.77
47374;BME280;33123;50.118;10.272;2023-02-13T09:13:05;99792.00;;;10.77;55.79
47374;BME280;33123;50.118;10.272;2023-02-13T09:15:32;99803.41;;;10.77;56.59
47374;BME280;33123;50.118;10.272;2023-02-13T09:17:59;99795.88;;;10.74;56.70
47374;BME280;33123;50.118;10.272;2023-02-13T09:20:26;99793.53;;;10.58;56.19
47374;BME280;33123;50.118;10.272;2023-02-13T09:22:54;99798.53;;;10.46;57.03
47374;BME280;33123;50.118;10.272;2023-02-13T09:25:20;99796.66;;;10.34;57.65
47374;BME280;33123;50.118;10.272;2023-02-13T09:27:47;99796.91;;;10.17;57.69
47374;BME280;33123;50.118;10.272;2023-02-13T09:30:15;99794.75;;;9.99;57.98
47374;BME280;33123;50.118;10.272;2023-02-13T09:32:47;99794.88;;;9.91;59.37
47374;BME280;33123;50.118;10.272;2023-02-13T09:35:14;99798.63;;;9.82;60.01
47374;BME280;33123;50.118;10.272;2023-02-13T09:37:40;99794.06;;;9.69;60.06
47374;BME280;33123;50.118;10.272;2023-02-13T09:40:15;99798.00;;;9.59;60.40
47374;BME280;33123;50.118;10.272;2023-02-13T09:42:44;99799.56;;;9.53;60.44
47374;BME280;33123;50.118;10.272;2023-02-13T09:45:12;99801.19;;;9.54;61.34
47374;BME280;33123;50.118;10.272;2023-02-13T09:47:43;99804.03;;;9.52;61.53
47374;BME280;33123;50.118;10.272;2023-02-13T09:50:13;99800.22;;;9.55;61.66
47374;BME280;33123;50.118;10.272;2023-02-13T09:52:44;99802.41;;;9.51;62.24
47374;BME280;33123;50.118;10.272;2023-02-13T09:55:16;99798.75;;;9.52;61.69
47374;BME280;33123;50.118;10.272;2023-02-13T09:57:47;99801.78;;;9.49;62.21
47374;BME280;33123;50.118;10.272;2023-02-13T10:00:21;99796.25;;;9.44;62.12
47374;BME280;33123;50.118;10.272;2023-02-13T10:03:10;99794.34;;;9.38;62.47
47374;BME280;33123;50.118;10.272;2023-02-13T10:05:45;99799.44;;;9.40;63.16
47374;BME280;33123;50.118;10.272;2023-02-13T10:08:23;99802.25;;;9.38;62.93
47374;BME280;33123;50.118;10.272;2023-02-13T10:10:59;99797.69;;;9.47;63.85
47374;BME280;33123;50.118;10.272;2023-02-13T10:13:49;99792.75;;;9.59;63.54
47374;BME280;33123;50.118;10.272;2023-02-13T10:16:22;99791.94;;;9.79;63.22
47374;BME280;33123;50.118;10.272;2023-02-13T10:18:54;99790.69;;;10.03;62.55
47374;BME280;33123;50.118;10.272;2023-02-13T10:21:27;99798.13;;;10.21;62.34
47374;BME280;33123;50.118;10.272;2023-02-13T10:23:58;99802.41;;;10.44;62.10
47374;BME280;33123;50.118;10.272;2023-02-13T10:26:31;99807.41;;;10.67;61.67
47374;BME280;33123;50.118;10.272;2023-02-13T10:29:14;99806.53;;;11.01;60.79
47374;BME280;33123;50.118;10.272;2023-02-13T10:32:03;99806.47;;;11.42;60.13
47374;BME280;33123;50.118;10.272;2023-02-13T10:34:36;99804.16;;;12.00;59.41
47374;BME280;33123;50.118;10.272;2023-02-13T10:37:12;99805.47;;;12.69;58.59
47374;BME280;33123;50.118;10.272;2023-02-13T10:39:40;99802.56;;;13.42;56.43
47374;BME280;33123;50.118;10.272;2023-02-13T10:42:17;99800.25;;;14.34;54.30
47374;BME280;33123;50.118;10.272;2023-02-13T10:44:54;99790.94;;;15.35;53.15
47374;BME280;33123;50.118;10.272;2023-02-13T10:47:36;99806.19;;;16.34;47.51
47374;BME280;33123;50.118;10.272;2023-02-13T10:50:15;99804.56;;;17.21;47.07
47374;BME280;33123;50.118;10.272;2023-02-13T10:52:52;99798.00;;;17.85;43.47
47374;BME280;33123;50.118;10.272;2023-02-13T10:55:57;99793.22;;;18.21;43.07
47374;BME280;33123;50.118;10.272;2023-02-13T10:58:32;99793.56;;;18.25;40.42
47374;BME280;33123;50.118;10.272;2023-02-13T11:01:06;99777.56;;;17.74;40.71
47374;BME280;33123;50.118;10.272;2023-02-13T11:03:34;99781.44;;;17.38;41.78
47374;BME280;33123;50.118;10.272;2023-02-13T11:06:06;99779.50;;;17.05;43.04
47374;BME280;33123;50.118;10.272;2023-02-13T11:08:37;99776.72;;;17.00;44.68
47374;BME280;33123;50.118;10.272;2023-02-13T11:11:28;99778.06;;;17.14;43.74
47374;BME280;33123;50.118;10.272;2023-02-13T11:14:08;99781.53;;;17.60;43.09
47374;BME280;33123;50.118;10.272;2023-02-13T11:16:41;99777.00;;;17.89;42.26
47374;BME280;33123;50.118;10.272;2023-02-13T11:19:16;99781.25;;;18.24;41.49
47374;BME280;33123;50.118;10.272;2023-02-13T11:21:45;99773.91;;;18.53;41.34
47374;BME280;33123;50.118;10.272;2023-02-13T11:24:20;99767.88;;;18.79;39.88
47374;BME280;33123;50.118;10.272;2023-02-13T11:26:53;99761.94;;;18.72;40.59
47374;BME280;33123;50.118;10.272;2023-02-13T11:29:24;99761.41;;;18.75;39.54
47374;BME280;33123;50.118;10.272;2023-02-13T11:32:22;99758.66;;;19.14;39.26
47374;BME280;33123;50.118;10.272;2023-02-13T11:34:49;99759.34;;;19.31;38.82
47374;BME280;33123;50.118;10.272;2023-02-13T11:37:20;99763.19;;;19.40;37.98
47374;BME280;33123;50.118;10.272;2023-02-13T11:39:50;99762.50;;;19.23;38.45
47374;BME280;33123;50.118;10.272;2023-02-13T11:42:23;99754.56;;;19.06;38.65
47374;BME280;33123;50.118;10.272;2023-02-13T11:44:52;99745.13;;;18.98;39.44
47374;BME280;33123;50.118;10.272;2023-02-13T11:47:31;99716.59;;;18.77;39.62
47374;BME280;33123;50.118;10.272;2023-02-13T11:49:59;99752.47;;;18.86;39.85
47374;BME280;33123;50.118;10.272;2023-02-13T11:52:30;99752.41;;;18.81;39.51
47374;BME280;33123;50.118;10.272;2023-02-13T11:54:58;99754.66;;;18.67;39.71
47374;BME280;33123;50.118;10.272;2023-02-13T11:57:29;99746.28;;;18.64;40.14
47374;BME280;33123;50.118;10.272;2023-02-13T11:59:56;99744.91;;;18.78;39.98
47374;BME280;33123;50.118;10.272;2023-02-13T12:02:25;99744.50;;;18.91;39.35
47374;BME280;33123;50.118;10.272;2023-02-13T12:04:54;99748.41;;;19.06;38.90
47374;BME280;33123;50.118;10.272;2023-02-13T12:07:23;99751.22;;;19.21;38.26
47374;BME280;33123;50.118;10.272;2023-02-13T12:09:58;99748.13;;;19.29;38.35
47374;BME280;33123;50.118;10.272;2023-02-13T12:12:32;99748.94;;;19.30;37.92
47374;BME280;33123;50.118;10.272;2023-02-13T12:15:03;99739.88;;;19.09;37.72
47374;BME280;33123;50.118;10.272;2023-02-13T12:17:36;99734.81;;;19.07;38.50
47374;BME280;33123;50.118;10.272;2023-02-13T12:20:10;99736.78;;;19.17;38.68
47374;BME280;33123;50.118;10.272;2023-02-13T12:22:45;99732.03;;;19.24;37.90
47374;BME280;33123;50.118;10.272;2023-02-13T12:25:34;99721.88;;;19.26;38.16
47374;BME280;33123;50.118;10.272;2023-02-13T12:28:10;99722.72;;;19.32;37.60
47374;BME280;33123;50.118;10.272;2023-02-13T12:31:01;99712.31;;;19.30;38.03
47374;BME280;33123;50.118;10.272;2023-02-13T12:36:35;99690.47;;;18.62;34.75
47374;BME280;33123;50.118;10.272;2023-02-13T12:39:17;99715.56;;;18.61;35.52
47374;BME280;33123;50.118;10.272;2023-02-13T12:41:52;99721.59;;;18.13;35.91
47374;BME280;33123;50.118;10.272;2023-02-13T12:44:43;99718.06;;;17.90;36.98
47374;BME280;33123;50.118;10.272;2023-02-13T12:47:17;99708.59;;;17.32;37.22
47374;BME280;33123;50.118;10.272;2023-02-13T12:49:58;99702.88;;;17.12;37.67
47374;BME280;33123;50.118;10.272;2023-02-13T12:52:38;99702.13;;;17.00;38.29
47374;BME280;33123;50.118;10.272;2023-02-13T12:55:21;99695.28;;;16.75;38.21
47374;BME280;33123;50.118;10.272;2023-02-13T12:58:02;99703.44;;;16.45;39.10
47374;BME280;33123;50.118;10.272;2023-02-13T13:00:42;99692.69;;;16.40;39.22
47374;BME280;33123;50.118;10.272;2023-02-13T13:03:30;99700.03;;;16.21;40.42
47374;BME280;33123;50.118;10.272;2023-02-13T13:06:07;99692.13;;;16.26;41.15
47374;BME280;33123;50.118;10.272;2023-02-13T13:08:44;99687.84;;;16.25;40.89
47374;BME280;33123;50.118;10.272;2023-02-13T13:11:28;99683.31;;;16.26;39.89
47374;BME280;33123;50.118;10.272;2023-02-13T13:14:06;99680.56;;;16.32;40.87
47374;BME280;33123;50.118;10.272;2023-02-13T13:16:44;99682.75;;;16.35;42.93
47374;BME280;33123;50.118;10.272;2023-02-13T13:19:21;99684.44;;;16.53;44.34
47374;BME280;33123;50.118;10.272;2023-02-13T13:21:56;99685.13;;;16.60;44.30
47374;BME280;33123;50.118;10.272;2023-02-13T13:24:33;99683.63;;;16.53;44.41